New Orleans, LA (70112)

12:12 PM CDT on September 02, 2015 (GMT -0500)
French Quarter | | Change Station
CLOSE
Current Station
Personal Weather Station
Location: New Orleans, LA
Elevation: 30 ft
Nearby Weather Stations

Elev 30 ft 29.96 °N, 90.07 °W | Updated 8 minutes ago

Rain
Rain
83.1 °F
Feels Like 90 °F
N
2.2
Wind Variable Wind from NW

Today
High -- | Low -- °F
--% Chance of Precip.
Yesterday
High -- | Low -- °F
Precip. -- in
6:37 AM 7:21 PM
Waning Gibbous, 79% visible
Pressure 30.07 in
Visibility 10.0 miles
Clouds Few 2900 ft
Overcast 11000 ft
Heat Index 90 °F
Dew Point 75 °F
Humidity 76%
Rainfall 0.00 in
Snow Depth Not available.
UV 3 out of 12
Pollen 7.90 out of 12
Air Quality Not available.
Flu Activity Not available.
METAR KNEW 021653Z 14008KT 10SM FEW029 OVC110 29/22 A3009 RMK AO2 SLP183 T02890217
Pressure 30.07 in
Visibility 10.0 miles
Clouds Few 2900 ft
Overcast 11000 ft
Heat Index 90 °F
Dew Point 75 °F
Humidity 76%
Rainfall 0.00 in
Snow Depth Not available.
UV 3 out of 12
Pollen 7.90 out of 12
Air Quality Not available.
Flu Activity Not available.
METAR KNEW 021653Z 14008KT 10SM FEW029 OVC110 29/22 A3009 RMK AO2 SLP183 T02890217

10-Day Weather Forecast

×

Almanac

Astronomy

Sep. 02, 2015 Rise Set
Actual Time
Civil Twilight
Nautical Twilight
Astronomical Twilight
Moon
Length of Visible Light
Length of Day
Tomorrow will be .
, % of the Moon is Illuminated

Today's Extremes

State Highs State Lows

Community

WunderPhotos

Upload Photos

1,851,785 photos uploaded!

WunderBlogs® & News

Nearby

Air Quality

  Air Quality AQ Index Pollutant
Not available.

Snow Depth

Station Depth Elevation

Earthquake Activity

City Distance Mag. Time & Date
Minimum magnitude displayed is 2.5.

Coastal Water Temperatures

Place Temperature

Stations

Nearby Weather Stations

Station Location Temp. Windchill Dew Point Humidity Wind Precip. Elev Updated Type